Time;durP1;ratioP1;P1;durP2;ratioP2;P2;SDS_P1;SDS_P2;PMS_P1;PMS_P2;Temp;Humidity;BMP_temperature;BMP_pressure;BME280_temperature;BME280_humidity;BME280_pressure;Samples;Min_cycle;Max_cycle;Signal;HPM_P1;HPM_P2
2021/11/23 00:06:52;;;;;;;;;;;6.00;84.40;;;;;;20976848;27;75831;-72
2021/11/23 00:16:54;;;;;;;;;;;6.30;84.90;;;;;;21000805;27;75658;-74
2021/11/23 00:26:56;;;;;;;;;;;6.60;84.60;;;;;;20982299;27;77168;-72
2021/11/23 00:36:59;;;;;;;;;;;6.80;83.70;;;;;;20982566;27;76778;-71
2021/11/23 00:47:00;;;;;;;;;;;7.00;83.20;;;;;;20999106;27;76644;-71
2021/11/23 00:57:02;;;;;;;;;;;7.20;82.70;;;;;;20997727;27;76115;-73
2021/11/23 01:07:03;;;;;;;;;;;7.20;82.10;;;;;;20996688;27;75703;-73
2021/11/23 01:17:05;;;;;;;;;;;7.10;82.00;;;;;;20978273;27;77000;-74
2021/11/23 01:27:08;;;;;;;;;;;7.10;82.30;;;;;;20977816;27;77178;-71
2021/11/23 01:37:20;;;;;;;;;;;7.20;81.80;;;;;;20978041;27;74920;-72
2021/11/23 01:47:22;;;;;;;;;;;7.30;81.80;;;;;;20975965;27;75362;-74
2021/11/23 01:57:24;;;;;;;;;;;7.40;81.60;;;;;;20993914;27;75936;-74
2021/11/23 02:07:27;;;;;;;;;;;7.40;81.50;;;;;;20974141;27;76891;-72
2021/11/23 02:17:31;;;;;;;;;;;7.10;81.20;;;;;;20992344;27;76972;-76
2021/11/23 03:00:26;;;;;;;;;;;7.10;82.40;;;;;;20984371;27;74922;-72
2021/11/23 03:10:29;;;;;;;;;;;6.90;82.80;;;;;;20970935;27;75470;-72
2021/11/23 03:20:32;;;;;;;;;;;7.10;82.60;;;;;;20969741;27;75480;-75
2021/11/23 03:30:37;;;;;;;;;;;7.00;82.20;;;;;;20970311;27;75782;-74
2021/11/23 03:40:41;;;;;;;;;;;6.70;82.80;;;;;;20994965;27;75455;-77
2021/11/23 03:50:48;;;;;;;;;;;6.70;83.00;;;;;;21002144;27;76139;-70
2021/11/23 04:00:51;;;;;;;;;;;6.50;82.40;;;;;;20983889;27;74614;-72
2021/11/23 04:10:54;;;;;;;;;;;6.30;82.30;;;;;;21000959;27;76868;-71
2021/11/23 04:20:57;;;;;;;;;;;6.40;82.40;;;;;;21002202;27;76944;-77
2021/11/23 04:30:59;;;;;;;;;;;6.40;82.30;;;;;;20981401;27;75715;-72
2021/11/23 04:41:02;;;;;;;;;;;6.40;81.40;;;;;;20999479;27;76839;-74
2021/11/23 04:51:04;;;;;;;;;;;6.10;80.30;;;;;;20998027;27;76932;-70
2021/11/23 05:01:06;;;;;;;;;;;5.90;81.00;;;;;;20999016;27;76881;-72
2021/11/23 05:11:10;;;;;;;;;;;5.90;80.60;;;;;;20996907;27;77082;-72
2021/11/23 05:21:11;;;;;;;;;;;5.90;80.50;;;;;;20992712;27;76720;-73
2021/11/23 05:31:14;;;;;;;;;;;6.00;80.30;;;;;;20951275;27;75758;-69
2021/11/23 05:41:18;;;;;;;;;;;6.10;79.90;;;;;;20963741;27;75764;-72
2021/11/23 05:51:21;;;;;;;;;;;6.00;79.60;;;;;;20908697;28;75743;-73
2021/11/23 06:01:23;;;;;;;;;;;6.10;79.30;;;;;;20908770;27;77008;-72
2021/11/23 06:11:25;;;;;;;;;;;6.20;79.30;;;;;;20889799;28;75609;-71
2021/11/23 06:21:29;;;;;;;;;;;6.20;78.70;;;;;;20889768;28;75819;-72
2021/11/23 06:31:31;;;;;;;;;;;6.20;78.10;;;;;;20888917;28;76887;-73
2021/11/23 06:41:33;;;;;;;;;;;6.00;77.40;;;;;;20911724;27;76555;-70
2021/11/23 06:51:35;;;;;;;;;;;5.70;77.40;;;;;;20928593;27;76723;-69
2021/11/23 07:01:37;;;;;;;;;;;5.20;78.80;;;;;;20920889;27;77158;-70
2021/11/23 07:11:39;;;;;;;;;;;5.00;80.00;;;;;;20912501;27;75882;-66
2021/11/23 07:21:42;;;;;;;;;;;4.90;80.90;;;;;;20926629;27;75858;-66
2021/11/23 07:31:44;;;;;;;;;;;5.20;81.20;;;;;;20925328;27;75874;-64
2021/11/23 07:41:47;;;;;;;;;;;5.40;80.60;;;;;;20920781;27;75751;-61
2021/11/23 07:51:49;;;;;;;;;;;5.90;79.00;;;;;;20890784;27;76121;-70
2021/11/23 08:01:52;;;;;;;;;;;6.30;77.50;;;;;;20902324;27;76075;-70
2021/11/23 08:11:54;;;;;;;;;;;6.50;76.80;;;;;;20944415;27;75833;-69
2021/11/23 08:21:58;;;;;;;;;;;6.50;76.30;;;;;;20947947;27;76614;-69
2021/11/23 08:31:59;;;;;;;;;;;6.70;76.10;;;;;;20962045;27;76638;-69
2021/11/23 08:42:01;;;;;;;;;;;6.90;75.60;;;;;;20983968;27;75750;-68
2021/11/23 08:52:02;;;;;;;;;;;7.40;75.00;;;;;;20983431;27;76682;-70
2021/11/23 09:02:03;;;;;;;;;;;7.90;73.20;;;;;;20982213;27;76765;-74
2021/11/23 09:12:07;;;;;;;;;;;7.80;72.60;;;;;;20861104;27;76172;-71
2021/11/23 09:22:10;;;;;;;;;;;7.70;73.00;;;;;;20832963;28;77949;-71
2021/11/23 09:32:15;;;;;;;;;;;7.70;72.60;;;;;;20856672;28;76046;-69
2021/11/23 09:42:19;;;;;;;;;;;8.70;69.90;;;;;;20863979;28;75688;-73
2021/11/23 09:52:22;;;;;;;;;;;9.90;66.10;;;;;;20840017;28;76727;-69
2021/11/23 10:02:25;;;;;;;;;;;10.70;63.40;;;;;;20846298;28;76127;-66
2021/11/23 10:12:27;;;;;;;;;;;13.00;59.20;;;;;;20928070;27;75825;-67
2021/11/23 10:22:35;;;;;;;;;;;13.20;53.80;;;;;;20928741;27;75842;-67
2021/11/23 10:32:40;;;;;;;;;;;26.60;32.50;;;;;;20921271;27;75995;-67
2021/11/23 10:42:43;;;;;;;;;;;30.90;24.00;;;;;;20948168;27;76867;-66
2021/11/23 10:52:46;;;;;;;;;;;21.40;36.20;;;;;;20941746;27;77590;-66
2021/11/23 11:02:50;;;;;;;;;;;15.70;44.60;;;;;;20939398;27;75843;-67
2021/11/23 11:12:54;;;;;;;;;;;13.50;48.70;;;;;;20918877;27;93164;-69
2021/11/23 11:23:02;;;;;;;;;;;12.60;52.30;;;;;;20906139;27;76683;-68
2021/11/23 11:33:04;;;;;;;;;;;13.40;51.50;;;;;;20919258;27;75797;-68
2021/11/23 11:43:07;;;;;;;;;;;14.90;46.50;;;;;;20948127;27;76330;-68
2021/11/23 11:53:10;;;;;;;;;;;13.60;48.60;;;;;;20939748;27;76199;-67
2021/11/23 12:03:14;;;;;;;;;;;12.70;50.40;;;;;;20934470;27;75839;-66
2021/11/23 12:13:36;;;;;;;;;;;12.40;48.80;;;;;;20933391;27;75930;-69
2021/11/23 12:23:53;;;;;;;;;;;12.40;51.30;;;;;;20937799;27;76482;-68
2021/11/23 12:34:02;;;;;;;;;;;12.20;51.90;;;;;;20910562;27;76161;-68
2021/11/23 12:44:23;;;;;;;;;;;11.90;52.60;;;;;;20934082;27;76448;-67
2021/11/23 12:54:27;;;;;;;;;;;11.60;52.60;;;;;;20940694;27;75332;-68
2021/11/23 13:04:41;;;;;;;;;;;11.40;52.30;;;;;;20922777;27;76229;-68
2021/11/23 13:15:04;;;;;;;;;;;11.50;51.50;;;;;;20927392;27;75531;-70
2021/11/23 13:25:06;;;;;;;;;;;11.90;51.00;;;;;;20955103;27;75885;-72
2021/11/23 13:35:09;;;;;;;;;;;12.00;50.80;;;;;;20902391;27;76915;-72
2021/11/23 13:45:14;;;;;;;;;;;11.90;51.40;;;;;;20928339;27;77084;-71
2021/11/23 13:55:22;;;;;;;;;;;11.40;52.50;;;;;;20935046;27;76995;-71
2021/11/23 14:05:43;;;;;;;;;;;11.10;53.60;;;;;;20973762;27;76269;-72
2021/11/23 14:15:48;;;;;;;;;;;11.00;54.20;;;;;;20962046;27;75826;-71
2021/11/23 14:25:58;;;;;;;;;;;10.80;54.30;;;;;;20990410;27;74507;-71
2021/11/23 14:36:03;;;;;;;;;;;10.60;55.00;;;;;;20951862;27;75615;-74
2021/11/23 14:46:04;;;;;;;;;;;10.40;54.90;;;;;;20908899;27;75852;-73
2021/11/23 14:56:05;;;;;;;;;;;10.10;56.10;;;;;;20897031;27;76105;-72
2021/11/23 15:06:08;;;;;;;;;;;9.90;57.30;;;;;;20884510;28;76615;-73
2021/11/23 15:16:11;;;;;;;;;;;9.90;57.40;;;;;;20901682;28;75916;-73
2021/11/23 15:26:12;;;;;;;;;;;9.90;57.50;;;;;;20904576;27;74729;-72
2021/11/23 15:36:14;;;;;;;;;;;9.50;58.40;;;;;;20896308;27;75731;-71
2021/11/23 15:46:15;;;;;;;;;;;9.50;58.20;;;;;;20897586;28;76485;-72
2021/11/23 15:56:17;;;;;;;;;;;9.30;59.00;;;;;;20949624;27;76727;-73
2021/11/23 16:06:18;;;;;;;;;;;9.20;59.30;;;;;;20939201;27;77306;-71
2021/11/23 16:16:20;;;;;;;;;;;9.10;59.00;;;;;;20983310;27;75621;-71
2021/11/23 16:26:25;;;;;;;;;;;8.90;59.60;;;;;;20980702;27;78221;-72
2021/11/23 16:36:26;;;;;;;;;;;8.90;59.50;;;;;;20995748;27;75724;-72
2021/11/23 16:46:28;;;;;;;;;;;8.70;59.70;;;;;;20995111;27;76822;-72
2021/11/23 16:56:29;;;;;;;;;;;8.50;59.80;;;;;;20980789;27;76732;-72
2021/11/23 17:06:31;;;;;;;;;;;8.40;60.00;;;;;;20997687;27;76947;-72
2021/11/23 17:16:32;;;;;;;;;;;8.20;61.00;;;;;;20979986;27;77006;-73
2021/11/23 17:26:37;;;;;;;;;;;8.10;61.80;;;;;;20996903;27;74923;-71
2021/11/23 17:36:40;;;;;;;;;;;8.10;61.90;;;;;;20978343;27;76942;-76
2021/11/23 17:46:41;;;;;;;;;;;8.00;62.00;;;;;;20956891;27;75946;-71
2021/11/23 17:56:43;;;;;;;;;;;8.00;62.10;;;;;;20947889;27;76798;-73
2021/11/23 18:06:45;;;;;;;;;;;7.90;62.10;;;;;;20904796;27;76984;-75
